createdAt,value
2022-12-29T00:01:44.989Z,100193.00
2022-12-29T00:04:17.133Z,100189.00
2022-12-29T00:06:44.022Z,100185.00
2022-12-29T00:09:13.579Z,100184.00
2022-12-29T00:11:40.698Z,100172.00
2022-12-29T00:14:29.467Z,100180.00
2022-12-29T00:16:56.657Z,100174.00
2022-12-29T00:19:43.229Z,100177.00
2022-12-29T00:22:32.284Z,100170.00
2022-12-29T00:25:17.997Z,100172.00
2022-12-29T00:28:07.673Z,100170.00
2022-12-29T00:30:55.323Z,100161.00
2022-12-29T00:33:46.349Z,100173.00
2022-12-29T00:36:36.990Z,100156.00
2022-12-29T00:39:31.259Z,100170.00
2022-12-29T00:42:22.901Z,100154.00
2022-12-29T00:44:49.625Z,100152.00
2022-12-29T00:47:16.387Z,100154.00
2022-12-29T00:49:46.212Z,100149.00
2022-12-29T00:52:14.505Z,100147.00
2022-12-29T00:54:45.731Z,100147.00
2022-12-29T00:57:13.495Z,100146.00
2022-12-29T00:59:42.063Z,100147.00
2022-12-29T01:02:10.118Z,100147.00
2022-12-29T01:04:37.385Z,100153.00
2022-12-29T01:07:04.262Z,100143.00
2022-12-29T01:09:50.864Z,100145.00
2022-12-29T01:12:17.726Z,100143.00
2022-12-29T01:14:45.083Z,100136.00
2022-12-29T01:17:12.062Z,100141.00
2022-12-29T01:19:38.827Z,100145.00
2022-12-29T01:22:05.581Z,100136.00
2022-12-29T01:24:32.366Z,100139.00
2022-12-29T01:26:59.115Z,100143.00
2022-12-29T01:29:25.976Z,100141.00
2022-12-29T01:31:52.755Z,100147.00
2022-12-29T01:34:19.551Z,100152.00
2022-12-29T01:36:46.527Z,100138.00
2022-12-29T01:39:13.382Z,100137.00
2022-12-29T01:41:42.581Z,100140.00
2022-12-29T01:44:55.762Z,100133.00
2022-12-29T01:47:29.305Z,100137.00
2022-12-29T01:50:02.149Z,100130.00
2022-12-29T01:52:34.321Z,100129.00
2022-12-29T01:55:04.129Z,100125.00
2022-12-29T01:57:37.131Z,100120.00
2022-12-29T02:00:13.268Z,100129.00
2022-12-29T02:02:47.173Z,100110.00
2022-12-29T02:05:29.237Z,100118.00
2022-12-29T02:07:56.315Z,100107.00
2022-12-29T02:10:27.258Z,100109.00
2022-12-29T02:12:55.280Z,100112.00
2022-12-29T02:15:40.659Z,100107.00
2022-12-29T02:18:49.978Z,100112.00
2022-12-29T02:21:57.734Z,100097.00
2022-12-29T02:24:58.785Z,100096.00
2022-12-29T02:28:15.321Z,100094.00
2022-12-29T02:31:15.050Z,100089.00
2022-12-29T02:34:17.361Z,100085.00
2022-12-29T02:37:10.184Z,100078.00
2022-12-29T02:40:02.377Z,100082.00
2022-12-29T02:42:38.002Z,100077.00
2022-12-29T02:45:20.854Z,100076.00
2022-12-29T02:48:16.132Z,100087.00
2022-12-29T02:51:24.789Z,100079.00
2022-12-29T02:54:26.686Z,100073.00
2022-12-29T02:56:53.494Z,100074.00
2022-12-29T02:59:21.492Z,100086.00
2022-12-29T03:02:33.640Z,100069.00
2022-12-29T03:05:16.071Z,100078.00
2022-12-29T03:08:29.246Z,100057.00
2022-12-29T03:11:33.368Z,100064.00
2022-12-29T03:14:48.382Z,100056.00
2022-12-29T03:17:30.648Z,100059.00
2022-12-29T03:20:09.132Z,100039.00
2022-12-29T03:22:43.986Z,100048.00
2022-12-29T03:25:24.512Z,100044.00
2022-12-29T03:28:08.432Z,100045.00
2022-12-29T03:30:37.920Z,100044.00
2022-12-29T03:33:09.862Z,100035.00
2022-12-29T03:35:41.459Z,100046.00
2022-12-29T03:38:18.350Z,100036.00
2022-12-29T03:40:51.214Z,100035.00
2022-12-29T03:43:19.146Z,100028.00
2022-12-29T03:45:45.942Z,100028.00
2022-12-29T03:48:12.793Z,100016.00
2022-12-29T03:50:39.632Z,100011.00
2022-12-29T03:53:06.336Z,100017.00
2022-12-29T03:55:33.827Z,100025.00
2022-12-29T03:58:00.583Z,100036.00
2022-12-29T04:00:27.336Z,100024.00
2022-12-29T04:02:54.306Z,100029.00
2022-12-29T04:05:21.896Z,100032.00
2022-12-29T04:07:48.633Z,100028.00
2022-12-29T04:10:15.574Z,100031.00
2022-12-29T04:12:43.260Z,100026.00
2022-12-29T04:15:10.912Z,100027.00
2022-12-29T04:17:37.795Z,100027.00
2022-12-29T04:20:24.131Z,100010.00
2022-12-29T04:22:59.540Z,100031.00
2022-12-29T04:25:26.237Z,100023.00
2022-12-29T04:27:52.971Z,100022.00
2022-12-29T04:30:19.913Z,100041.00
2022-12-29T04:32:46.656Z,100032.00
2022-12-29T04:35:13.397Z,100016.00
2022-12-29T04:37:40.131Z,100027.00
2022-12-29T04:40:08.060Z,100016.00
2022-12-29T04:42:34.818Z,100023.00
2022-12-29T04:45:01.595Z,100007.00
2022-12-29T04:47:28.351Z,100010.00
2022-12-29T04:49:55.081Z,100011.00
2022-12-29T04:52:21.809Z,100015.00
2022-12-29T04:54:48.535Z,100005.00
2022-12-29T04:57:15.256Z,100002.00
2022-12-29T04:59:42.740Z,99999.00
2022-12-29T05:02:09.627Z,99987.00
2022-12-29T05:04:36.451Z,99989.00
2022-12-29T05:07:03.254Z,100002.00
2022-12-29T05:09:30.889Z,99998.00
2022-12-29T05:11:57.634Z,99998.00
2022-12-29T05:14:24.573Z,99999.00
2022-12-29T05:16:51.438Z,99995.00
2022-12-29T05:19:18.404Z,99998.00
2022-12-29T05:21:45.411Z,99986.00
2022-12-29T05:24:12.155Z,99983.00
2022-12-29T05:26:38.953Z,99972.00
2022-12-29T05:29:05.721Z,99977.00
2022-12-29T05:31:32.531Z,99973.00
2022-12-29T05:33:59.716Z,99966.00
2022-12-29T05:36:26.438Z,99968.00
2022-12-29T05:38:53.186Z,99966.00
2022-12-29T05:41:20.558Z,99971.00
2022-12-29T05:43:47.460Z,99962.00
2022-12-29T05:46:14.269Z,99958.00
2022-12-29T05:48:41.304Z,99971.00
2022-12-29T05:51:08.057Z,99974.00
2022-12-29T05:53:34.803Z,99963.00
2022-12-29T05:56:01.510Z,99962.00
2022-12-29T05:58:28.238Z,99961.00
2022-12-29T06:00:55.048Z,99959.00
2022-12-29T06:03:21.892Z,99949.00
2022-12-29T06:05:49.713Z,99961.00
2022-12-29T06:08:16.647Z,99957.00
2022-12-29T06:10:43.410Z,99944.00
2022-12-29T06:13:10.316Z,99955.00
2022-12-29T06:15:37.396Z,99939.00
2022-12-29T06:18:04.143Z,99953.00
2022-12-29T06:20:30.942Z,99956.00
2022-12-29T06:22:57.646Z,99953.00
2022-12-29T06:25:24.488Z,99946.00
2022-12-29T06:27:51.367Z,99953.00
2022-12-29T06:30:18.175Z,99955.00
2022-12-29T06:32:45.561Z,99945.00
2022-12-29T06:35:12.324Z,99950.00
2022-12-29T06:37:39.049Z,99949.00
2022-12-29T06:40:06.740Z,99950.00
2022-12-29T06:42:33.941Z,99955.00
2022-12-29T06:45:01.626Z,99959.00
2022-12-29T06:47:28.470Z,99971.00
2022-12-29T06:49:55.216Z,99968.00
2022-12-29T06:52:21.963Z,99968.00
2022-12-29T06:54:48.662Z,99970.00
2022-12-29T06:57:15.425Z,99977.00
2022-12-29T06:59:42.437Z,99978.00
2022-12-29T07:02:12.610Z,99978.00
2022-12-29T07:04:39.551Z,99985.00
2022-12-29T07:07:06.294Z,99983.00
2022-12-29T07:09:33.111Z,99979.00
2022-12-29T07:12:01.462Z,99972.00
2022-12-29T07:14:28.246Z,99963.00
2022-12-29T07:16:55.411Z,99975.00
2022-12-29T07:19:22.193Z,99981.00
2022-12-29T07:21:48.967Z,99982.00
2022-12-29T07:24:15.710Z,99987.00
2022-12-29T07:26:42.788Z,99972.00
2022-12-29T07:29:09.573Z,99989.00
2022-12-29T07:31:36.332Z,99980.00
2022-12-29T07:34:03.154Z,99985.00
2022-12-29T07:36:34.368Z,99973.00
2022-12-29T07:39:02.232Z,99968.00
2022-12-29T07:41:29.116Z,99961.00
2022-12-29T07:43:55.949Z,99967.00
2022-12-29T07:46:54.440Z,99968.00
2022-12-29T07:49:09.540Z,99968.00
2022-12-29T07:51:36.283Z,99962.00
2022-12-29T07:54:03.192Z,99964.00
2022-12-29T07:56:29.968Z,99959.00
2022-12-29T07:58:56.707Z,99969.00
2022-12-29T08:01:24.433Z,99981.00
2022-12-29T08:03:56.850Z,99976.00
2022-12-29T08:06:24.082Z,99972.00
2022-12-29T08:08:50.880Z,99968.00
2022-12-29T08:11:17.695Z,99984.00
2022-12-29T08:13:44.490Z,99969.00
2022-12-29T08:16:12.326Z,99976.00
2022-12-29T08:18:39.278Z,99967.00
2022-12-29T08:21:07.041Z,99969.00
2022-12-29T08:23:34.280Z,99968.00
2022-12-29T08:26:06.905Z,99975.00
2022-12-29T08:28:34.300Z,99972.00
2022-12-29T08:31:02.712Z,99974.00
2022-12-29T08:33:30.867Z,99968.00
2022-12-29T08:36:06.872Z,99968.00
2022-12-29T08:38:34.176Z,99974.00
2022-12-29T08:41:02.389Z,99966.00
2022-12-29T08:43:30.086Z,99964.00
2022-12-29T08:45:58.692Z,99961.00
2022-12-29T08:48:26.550Z,99968.00
2022-12-29T08:50:53.792Z,99973.00
2022-12-29T08:53:20.711Z,99978.00
2022-12-29T08:55:58.041Z,99968.00
2022-12-29T08:58:29.377Z,99971.00
2022-12-29T09:00:57.711Z,99980.00
2022-12-29T09:06:17.812Z,99966.00
2022-12-29T09:08:45.491Z,99960.00
2022-12-29T09:11:19.490Z,99961.00
2022-12-29T09:13:47.172Z,99962.00
2022-12-29T09:16:14.193Z,99961.00
2022-12-29T09:18:41.571Z,99965.00
2022-12-29T09:21:08.771Z,99970.00
2022-12-29T09:23:35.812Z,99968.00
2022-12-29T09:26:03.768Z,99962.00
2022-12-29T09:28:31.492Z,99964.00
2022-12-29T09:30:59.135Z,99955.00
2022-12-29T09:33:26.452Z,99955.00
2022-12-29T09:35:56.971Z,99950.00
2022-12-29T09:38:25.526Z,99950.00
2022-12-29T09:40:59.723Z,99947.00
2022-12-29T09:44:02.765Z,99946.00
2022-12-29T09:46:39.063Z,99939.00
2022-12-29T09:49:40.796Z,99941.00
2022-12-29T09:52:30.535Z,99935.00
2022-12-29T09:55:16.112Z,99929.00
2022-12-29T09:57:59.879Z,99939.00
2022-12-29T10:01:42.439Z,99946.00
2022-12-29T10:04:09.933Z,99940.00
2022-12-29T10:07:27.890Z,99950.00
2022-12-29T10:10:04.044Z,99950.00
2022-12-29T10:12:59.692Z,99934.00
2022-12-29T10:16:06.280Z,99949.00
2022-12-29T10:19:07.208Z,99949.00
2022-12-29T10:22:04.409Z,99940.00
2022-12-29T10:24:35.783Z,99939.00
2022-12-29T10:27:04.368Z,99933.00
2022-12-29T10:29:43.341Z,99927.00
2022-12-29T10:32:49.441Z,99927.00
2022-12-29T10:35:27.685Z,99930.00
2022-12-29T10:38:16.636Z,99937.00
2022-12-29T10:41:06.563Z,99918.00
2022-12-29T10:43:48.784Z,99929.00
2022-12-29T10:46:22.059Z,99931.00
2022-12-29T10:48:48.833Z,99928.00
2022-12-29T10:51:25.468Z,99921.00
2022-12-29T10:54:00.908Z,99907.00
2022-12-29T10:56:45.928Z,99913.00
2022-12-29T10:59:24.014Z,99922.00
2022-12-29T11:02:47.240Z,99924.00
2022-12-29T11:05:40.024Z,99921.00
2022-12-29T11:08:18.851Z,99897.00
2022-12-29T11:10:47.235Z,99919.00
2022-12-29T11:13:25.803Z,99915.00
2022-12-29T11:15:53.815Z,99929.00
2022-12-29T11:18:32.284Z,99924.00
2022-12-29T11:21:03.743Z,99910.00
2022-12-29T11:23:37.414Z,99923.00
2022-12-29T11:26:09.204Z,99919.00
2022-12-29T11:28:36.313Z,99928.00
2022-12-29T11:31:07.385Z,99916.00
2022-12-29T11:33:39.704Z,99928.00
2022-12-29T11:36:23.053Z,99932.00
2022-12-29T11:38:54.374Z,99927.00
2022-12-29T11:41:27.962Z,99936.00
2022-12-29T11:44:00.831Z,99933.00
2022-12-29T11:46:34.635Z,99946.00
2022-12-29T11:49:02.664Z,99942.00
2022-12-29T11:51:38.713Z,99939.00
2022-12-29T11:54:06.979Z,99950.00
2022-12-29T11:56:42.187Z,99939.00
2022-12-29T11:59:42.238Z,99951.00
2022-12-29T12:02:42.197Z,99965.00
2022-12-29T12:05:41.160Z,99969.00
2022-12-29T12:08:23.784Z,99965.00
2022-12-29T12:11:04.664Z,99969.00
2022-12-29T12:13:41.314Z,99972.00
2022-12-29T12:16:19.359Z,99946.00
2022-12-29T12:19:00.630Z,99969.00
2022-12-29T12:21:45.866Z,99971.00
2022-12-29T12:24:43.210Z,99969.00
2022-12-29T12:27:44.662Z,99976.00
2022-12-29T12:30:27.733Z,99957.00
2022-12-29T12:33:04.428Z,99961.00
2022-12-29T12:35:47.705Z,99960.00
2022-12-29T12:38:40.598Z,99954.00
2022-12-29T12:41:39.046Z,99948.00
2022-12-29T12:44:24.483Z,99950.00
2022-12-29T12:47:29.734Z,99944.00
2022-12-29T12:50:25.518Z,99939.00
2022-12-29T12:53:16.783Z,99941.00
2022-12-29T12:56:08.796Z,99948.00
2022-12-29T12:59:12.727Z,99948.00
2022-12-29T13:01:58.393Z,99941.00
2022-12-29T13:04:47.818Z,99949.00
2022-12-29T13:07:31.460Z,99952.00
2022-12-29T13:10:27.019Z,99945.00
2022-12-29T13:13:13.609Z,99945.00
2022-12-29T13:16:14.331Z,99968.00
2022-12-29T13:19:25.313Z,99958.00
2022-12-29T13:22:21.048Z,99963.00
2022-12-29T13:25:23.955Z,99968.00
2022-12-29T13:28:21.630Z,99961.00
2022-12-29T13:31:06.671Z,99958.00
2022-12-29T13:33:40.768Z,99967.00
2022-12-29T13:36:36.737Z,99969.00
2022-12-29T13:39:22.988Z,99973.00
2022-12-29T13:41:54.076Z,99963.00
2022-12-29T13:44:36.374Z,99967.00
2022-12-29T13:47:32.308Z,99957.00
2022-12-29T13:50:02.602Z,99963.00
2022-12-29T13:52:38.524Z,99971.00
2022-12-29T13:55:33.115Z,99966.00
2022-12-29T13:58:24.725Z,99970.00
2022-12-29T14:01:22.261Z,99964.00
2022-12-29T14:04:00.877Z,99989.00
2022-12-29T14:06:34.728Z,99980.00
2022-12-29T14:09:08.009Z,99982.00
2022-12-29T14:11:40.691Z,99990.00
2022-12-29T14:14:24.458Z,99988.00
2022-12-29T14:16:52.183Z,99989.00
2022-12-29T14:19:32.033Z,99983.00
2022-12-29T14:22:04.263Z,99991.00
2022-12-29T14:24:34.126Z,99998.00
2022-12-29T14:27:01.830Z,99993.00
2022-12-29T14:29:31.537Z,100002.00
2022-12-29T14:31:59.429Z,100002.00
2022-12-29T14:34:31.018Z,100008.00
2022-12-29T14:37:05.118Z,100003.00
2022-12-29T14:39:43.198Z,100008.00
2022-12-29T14:42:10.352Z,100011.00
2022-12-29T14:45:14.309Z,100011.00
2022-12-29T14:47:50.540Z,100019.00
2022-12-29T14:50:22.871Z,100018.00
2022-12-29T14:53:04.338Z,100015.00
2022-12-29T14:55:56.556Z,100025.00
2022-12-29T14:58:33.422Z,100028.00
2022-12-29T15:01:01.805Z,100025.00
2022-12-29T15:03:43.862Z,100038.00
2022-12-29T15:06:19.825Z,100038.00
2022-12-29T15:09:05.109Z,100042.00
2022-12-29T15:11:40.467Z,100039.00
2022-12-29T15:14:28.886Z,100043.00
2022-12-29T15:16:55.679Z,100050.00
2022-12-29T15:19:27.793Z,100066.00
2022-12-29T15:21:56.896Z,100106.00
2022-12-29T15:24:24.680Z,100098.00
2022-12-29T15:26:54.360Z,100085.00
2022-12-29T15:29:40.708Z,100076.00
2022-12-29T15:32:16.839Z,100073.00
2022-12-29T15:34:50.241Z,100075.00
2022-12-29T15:37:43.635Z,100068.00
2022-12-29T15:40:33.157Z,100069.00
2022-12-29T15:43:21.263Z,100079.00
2022-12-29T15:45:49.722Z,100061.00
2022-12-29T15:48:24.017Z,100068.00
2022-12-29T15:50:52.368Z,100074.00
2022-12-29T15:53:31.956Z,100083.00
2022-12-29T15:56:10.731Z,100082.00
2022-12-29T15:58:49.576Z,100088.00
2022-12-29T16:01:23.602Z,100093.00
2022-12-29T16:03:53.026Z,100097.00
2022-12-29T16:06:34.791Z,100099.00
2022-12-29T16:09:07.831Z,100106.00
2022-12-29T16:11:54.160Z,100106.00
2022-12-29T16:14:42.141Z,100104.00
2022-12-29T16:17:16.719Z,100115.00
2022-12-29T16:19:55.326Z,100123.00
2022-12-29T16:22:47.220Z,100124.00
2022-12-29T16:25:23.384Z,100115.00
2022-12-29T16:27:51.997Z,100117.00
2022-12-29T16:30:34.129Z,100128.00
2022-12-29T16:33:05.076Z,100122.00
2022-12-29T16:35:47.831Z,100119.00
2022-12-29T16:38:23.700Z,100126.00
2022-12-29T16:41:04.156Z,100121.00
2022-12-29T16:43:42.665Z,100135.00
2022-12-29T16:46:30.615Z,100136.00
2022-12-29T16:48:58.553Z,100135.00
2022-12-29T16:51:36.325Z,100139.00
2022-12-29T16:54:04.959Z,100123.00
2022-12-29T16:56:37.175Z,100142.00
2022-12-29T16:59:19.290Z,100141.00
2022-12-29T17:01:46.278Z,100143.00
2022-12-29T17:04:14.914Z,100141.00
2022-12-29T17:06:42.095Z,100146.00
2022-12-29T17:09:38.208Z,100149.00
2022-12-29T17:12:11.530Z,100156.00
2022-12-29T17:14:45.367Z,100152.00
2022-12-29T17:17:19.226Z,100163.00
2022-12-29T17:19:54.419Z,100160.00
2022-12-29T17:22:28.751Z,100159.00
2022-12-29T17:24:58.957Z,100167.00
2022-12-29T17:27:37.758Z,100165.00
2022-12-29T17:30:18.594Z,100160.00
2022-12-29T17:32:54.343Z,100163.00
2022-12-29T17:35:23.041Z,100171.00
2022-12-29T17:37:50.984Z,100170.00
2022-12-29T17:40:25.845Z,100183.00
2022-12-29T17:42:58.485Z,100182.00
2022-12-29T17:45:29.251Z,100178.00
2022-12-29T17:47:57.210Z,100175.00
2022-12-29T17:50:26.948Z,100171.00
2022-12-29T17:53:06.831Z,100177.00
2022-12-29T17:55:38.147Z,100172.00
2022-12-29T17:58:34.901Z,100163.00
2022-12-29T18:01:03.695Z,100176.00
2022-12-29T18:03:40.694Z,100178.00
2022-12-29T18:06:11.389Z,100188.00
2022-12-29T18:08:40.753Z,100178.00
2022-12-29T18:11:23.825Z,100179.00
2022-12-29T18:13:52.258Z,100167.00
2022-12-29T18:16:22.405Z,100177.00
2022-12-29T18:18:49.180Z,100181.00
2022-12-29T18:21:22.513Z,100181.00
2022-12-29T18:23:50.435Z,100181.00
2022-12-29T18:26:27.716Z,100190.00
2022-12-29T18:28:57.104Z,100191.00
2022-12-29T18:31:29.137Z,100204.00
2022-12-29T18:33:58.669Z,100204.00
2022-12-29T18:36:26.576Z,100207.00
2022-12-29T18:38:54.705Z,100213.00
2022-12-29T18:41:25.481Z,100211.00
2022-12-29T18:43:52.755Z,100213.00
2022-12-29T18:46:23.479Z,100214.00
2022-12-29T18:48:51.820Z,100212.00
2022-12-29T18:51:26.340Z,100212.00
2022-12-29T18:53:54.305Z,100214.00
2022-12-29T18:56:23.308Z,100207.00
2022-12-29T18:58:51.572Z,100216.00
2022-12-29T19:01:27.833Z,100225.00
2022-12-29T19:03:55.283Z,100211.00
2022-12-29T19:06:22.062Z,100220.00
2022-12-29T19:08:48.885Z,100230.00
2022-12-29T19:11:15.850Z,100231.00
2022-12-29T19:13:42.596Z,100229.00
2022-12-29T19:16:20.521Z,100227.00
2022-12-29T19:19:00.933Z,100230.00
2022-12-29T19:21:34.370Z,100233.00
2022-12-29T19:24:01.155Z,100224.00
2022-12-29T19:26:38.324Z,100233.00
2022-12-29T19:29:13.385Z,100232.00
2022-12-29T19:31:40.225Z,100233.00
2022-12-29T19:34:07.263Z,100245.00
2022-12-29T19:36:34.085Z,100247.00
2022-12-29T19:39:00.975Z,100251.00
2022-12-29T19:41:27.770Z,100249.00
2022-12-29T19:43:54.491Z,100252.00
2022-12-29T19:46:22.379Z,100254.00
2022-12-29T19:48:49.165Z,100244.00
2022-12-29T19:51:17.510Z,100249.00
2022-12-29T19:53:46.002Z,100258.00
2022-12-29T19:56:14.605Z,100258.00
2022-12-29T19:58:46.862Z,100262.00
2022-12-29T20:01:18.245Z,100261.00
2022-12-29T20:03:45.754Z,100259.00
2022-12-29T20:06:13.035Z,100250.00
2022-12-29T20:08:41.049Z,100241.00
2022-12-29T20:11:17.595Z,100241.00
2022-12-29T20:13:45.244Z,100247.00
2022-12-29T20:16:16.856Z,100244.00
2022-12-29T20:18:44.096Z,100250.00
2022-12-29T20:21:21.198Z,100257.00
2022-12-29T20:23:50.061Z,100248.00
2022-12-29T20:26:21.589Z,100258.00
2022-12-29T20:28:49.196Z,100259.00
2022-12-29T20:31:30.465Z,100259.00
2022-12-29T20:33:57.565Z,100250.00
2022-12-29T20:36:31.951Z,100254.00
2022-12-29T20:39:01.310Z,100257.00
2022-12-29T20:41:30.941Z,100249.00
2022-12-29T20:43:58.484Z,100246.00
2022-12-29T20:46:32.854Z,100256.00
2022-12-29T20:49:02.203Z,100260.00
2022-12-29T20:51:55.291Z,100260.00
2022-12-29T20:54:18.050Z,100251.00
2022-12-29T20:56:45.829Z,100251.00
2022-12-29T20:59:29.376Z,100251.00
2022-12-29T21:01:58.179Z,100247.00
2022-12-29T21:04:25.535Z,100250.00
2022-12-29T21:06:52.755Z,100247.00
2022-12-29T21:09:20.378Z,100243.00
2022-12-29T21:11:47.969Z,100245.00
2022-12-29T21:14:14.773Z,100249.00
2022-12-29T21:16:41.573Z,100257.00
2022-12-29T21:19:08.321Z,100244.00
2022-12-29T21:21:35.103Z,100245.00
2022-12-29T21:24:05.801Z,100240.00
2022-12-29T21:26:33.848Z,100246.00
2022-12-29T21:29:03.619Z,100249.00
2022-12-29T21:31:35.621Z,100242.00
2022-12-29T21:34:04.721Z,100242.00
2022-12-29T21:36:32.980Z,100251.00
2022-12-29T21:39:00.592Z,100256.00
2022-12-29T21:41:27.439Z,100269.00
2022-12-29T21:44:12.709Z,100259.00
2022-12-29T21:46:42.031Z,100269.00
2022-12-29T21:49:08.976Z,100269.00
2022-12-29T21:51:52.109Z,100269.00
2022-12-29T21:54:44.365Z,100276.00
2022-12-29T21:57:33.409Z,100280.00
2022-12-29T22:00:19.073Z,100285.00
2022-12-29T22:03:04.857Z,100283.00
2022-12-29T22:05:50.358Z,100289.00
2022-12-29T22:08:35.778Z,100288.00
2022-12-29T22:11:27.042Z,100286.00
2022-12-29T22:13:56.225Z,100285.00
2022-12-29T22:16:24.910Z,100295.00
2022-12-29T22:18:52.268Z,100276.00
2022-12-29T22:21:20.031Z,100285.00
2022-12-29T22:23:46.758Z,100288.00
2022-12-29T22:26:15.127Z,100285.00
2022-12-29T22:28:46.002Z,100288.00
2022-12-29T22:31:27.458Z,100284.00
2022-12-29T22:33:56.990Z,100284.00
2022-12-29T22:36:24.797Z,100284.00
2022-12-29T22:38:51.538Z,100280.00
2022-12-29T22:41:18.720Z,100285.00
2022-12-29T22:43:45.475Z,100288.00
2022-12-29T22:46:12.480Z,100294.00
2022-12-29T22:48:39.599Z,100301.00
2022-12-29T22:51:06.912Z,100299.00
2022-12-29T22:53:33.693Z,100302.00
2022-12-29T22:56:14.997Z,100316.00
2022-12-29T22:58:44.872Z,100303.00
2022-12-29T23:01:15.110Z,100310.00
2022-12-29T23:03:42.895Z,100314.00
2022-12-29T23:06:14.479Z,100323.00
2022-12-29T23:08:41.316Z,100330.00
2022-12-29T23:11:11.836Z,100320.00
2022-12-29T23:13:40.969Z,100331.00
2022-12-29T23:16:08.099Z,100321.00
2022-12-29T23:18:34.991Z,100333.00
2022-12-29T23:21:01.886Z,100337.00
2022-12-29T23:23:49.577Z,100341.00
2022-12-29T23:26:18.826Z,100338.00
2022-12-29T23:28:46.061Z,100345.00
2022-12-29T23:31:14.392Z,100344.00
2022-12-29T23:33:41.410Z,100354.00
2022-12-29T23:36:08.934Z,100354.00
2022-12-29T23:38:36.095Z,100354.00
2022-12-29T23:41:02.824Z,100363.00
2022-12-29T23:43:29.662Z,100356.00
2022-12-29T23:45:56.378Z,100366.00
2022-12-29T23:48:23.242Z,100357.00
2022-12-29T23:50:49.981Z,100353.00
2022-12-29T23:53:16.721Z,100353.00
2022-12-29T23:55:44.625Z,100368.00
2022-12-29T23:58:11.463Z,100375.00
